Lacamas, Washington
Current Conditions -  °F | °C
As of 3:15 AM on Wednesday 26 Nov 2014 (Local Time) from KCLS Reporting Station
NA  
Wind Chill: 55°   Ceiling: NA
Heat Index: 55°   Visibility: NA
Dew Point: 55°   Wind: 6mph
Humidity: 100%   Direction: 210°SSW
Pressure: 30.21"   Gusts: NA
Location:  46.5995°N, 122.665°W
Report Text: KCLS 261115Z AUTO 21005KT 13/13 A3021 RMK AO2 PWINO
Loading
Personal Weather Stations






























Interactive Weather Map New forecast layout! Learn more

10-Day Weather Forecast

Advertisements
Track Severe Weather on mobile